Airfield :
LOGIN :

Register | Disclaimer

   EN    FR    IT 

 










Legend :    VFR   Marginal VFR   IFR   Intensive IFR   Very Intensive IFR
Visi :
Ceiling :
>= 8 km
>= 3000ft
5 to 8 km
1000 to 3000 ft
1500m to 5 km
500 to 1000 ft
800 to 1500m
200 to 500 ft
< 800m
< 200 ft
Symbols :   Thunderstorms  Fog  Heavy snow  Heavy precipitations  Wind > 20 kt
SIGMETs :     Misc.  Thunderstorms  Icing  Turbulence  Mountain Waves  Volcanic Ashes






- Airport Elevation : 466 ft


LHPA - Pápa

CURRENT METAR :
  • 100415Z 16014KT CAVOK 15/02 Q1015 NOSIG RMK BLU

EXPIRED METARs :
  • 100345Z 15012KT CAVOK 13/02 Q1015 NOSIG RMK BLU
  • 100315Z 15012KT CAVOK 14/01 Q1015 NOSIG RMK BLU
  • 100245Z 16010KT CAVOK 14/00 Q1015 NOSIG RMK BLU
  • 100215Z 16008KT CAVOK 13/00 Q1015 NOSIG RMK BLU
  • 100145Z 16010KT CAVOK 14/M01 Q1015 NOSIG RMK BLU

TAF TAF LHPA
Valid from the 10 at 00:00 until the 11 at 00:00 UTC


092315Z 1000/1024 16008KT CAVOK
BECMG 1004/1007 17014KT
BECMG 1007/1010 18017KT
BECMG 1016/1018 16010KT



MET'MAP, your aeronautical weather chart ! - Copyright ORBIFLY December 2007 - Disclaimer

ORBIFLY MET'MAP TEAM :

Programming & Development : Alexandra Zaïnal
Concept & original design : Baudouin d'Aumeries
Assistance for programming : Marc-Olivier Méhu
Technical & hardware support : Manuel Goepfert

Contact : metmap@orbifly.com




SOURCES & CREDITS :

   NOAA